sensor_id;sensor_type;location;lat;lon;timestamp;pressure;altitude;pressure_sealevel;temperature;humidity
46382;BME280;66809;52.974;-2.514;2023-03-15T00:01:47;1006.3355758453288;;;0.8442906011861049;40.671661439449714
46382;BME280;66809;52.974;-2.514;2023-03-15T00:03:48;1006.3555957509067;;;0.8012281464644282;40.65986567704876
46382;BME280;66809;52.974;-2.514;2023-03-15T00:05:48;1006.3749495446516;;;0.7525552853795464;40.64764403459714
46382;BME280;66809;52.974;-2.514;2023-03-15T00:07:47;1006.391468422628;;;0.7091514645436501;40.63808433344496
46382;BME280;66809;52.974;-2.514;2023-03-15T00:09:47;1006.4076410311317;;;0.6732819393497155;40.64540143857475
46382;BME280;66809;52.974;-2.514;2023-03-15T00:11:48;1006.4226127391794;;;0.6280283781790865;40.638529822098896
46382;BME280;66809;52.974;-2.514;2023-03-15T00:13:48;1006.43721023785;;;0.5943767778696175;40.62487876060506
46382;BME280;66809;52.974;-2.514;2023-03-15T00:15:49;1006.4516096497736;;;0.5656750049148419;40.6181646701972
46382;BME280;66809;52.974;-2.514;2023-03-15T00:17:47;1006.4662722301929;;;0.519734164870449;40.6126575365693
46382;BME280;66809;52.974;-2.514;2023-03-15T00:19:47;1006.4820439738999;;;0.4654861442641467;40.634319813704415
46382;BME280;66809;52.974;-2.514;2023-03-15T00:21:47;1006.4997232113157;;;0.4118193391756451;40.68111150496305
46382;BME280;66809;52.974;-2.514;2023-03-15T00:23:48;1006.5177156324138;;;0.36822931050288005;40.72946601410065
46382;BME280;66809;52.974;-2.514;2023-03-15T00:25:49;1006.5342157292235;;;0.3285290349207169;40.74726543936727
46382;BME280;66809;52.974;-2.514;2023-03-15T00:27:47;1006.5505989537331;;;0.28550193011157876;40.719343682573374
46382;BME280;66809;52.974;-2.514;2023-03-15T00:29:47;1006.566130443439;;;0.23052993903811073;40.70296570434857
46382;BME280;66809;52.974;-2.514;2023-03-15T00:31:48;1006.5819647560364;;;0.18009300028791506;40.71140014156368
46382;BME280;66809;52.974;-2.514;2023-03-15T00:33:48;1006.5989140156377;;;0.12795521805438018;40.721009644887545
46382;BME280;66809;52.974;-2.514;2023-03-15T00:35:47;1006.6179699167321;;;0.072329476367819;40.74040789112084
46382;BME280;66809;52.974;-2.514;2023-03-15T00:37:48;1006.6383823312625;;;0.028161385400952015;40.777510355667374
46382;BME280;66809;52.974;-2.514;2023-03-15T00:39:47;1006.6587997246171;;;-0.006864713163126839;40.793048004745565
46382;BME280;66809;52.974;-2.514;2023-03-15T00:41:47;1006.6793443529076;;;-0.048670481059027;40.81143356749265
46382;BME280;66809;52.974;-2.514;2023-03-15T00:43:48;1006.7011659579534;;;-0.08483223021444299;40.81899030026527
46382;BME280;66809;52.974;-2.514;2023-03-15T00:45:47;1006.7221947261972;;;-0.10966622457709016;40.821480357458285
46382;BME280;66809;52.974;-2.514;2023-03-15T00:47:48;1006.7414281511556;;;-0.1529238384344172;40.850349356907145
46382;BME280;66809;52.974;-2.514;2023-03-15T00:49:47;1006.760381538573;;;-0.17291183011174022;40.90993226656196
46382;BME280;66809;52.974;-2.514;2023-03-15T00:51:48;1006.7791119899417;;;-0.19804810296531625;40.94247682211114
46382;BME280;66809;52.974;-2.514;2023-03-15T00:53:49;1006.7979690793933;;;-0.2061835151140536;40.972551951656
46382;BME280;66809;52.974;-2.514;2023-03-15T00:55:47;1006.816453034917;;;-0.21243245847750314;40.98594778408628
46382;BME280;66809;52.974;-2.514;2023-03-15T00:57:48;1006.8344364686506;;;-0.21937179822712727;40.981044907244545
46382;BME280;66809;52.974;-2.514;2023-03-15T00:59:48;1006.8517041867254;;;-0.22017679341215127;40.9672302310296
46382;BME280;66809;52.974;-2.514;2023-03-15T01:01:47;1006.8676714629047;;;-0.22663880219107557;40.92447151630178
46382;BME280;66809;52.974;-2.514;2023-03-15T01:03:47;1006.8826142354857;;;-0.23234013496006206;40.887644197366534
46382;BME280;66809;52.974;-2.514;2023-03-15T01:05:48;1006.898107639534;;;-0.24821826673254857;40.891347895294764
46382;BME280;66809;52.974;-2.514;2023-03-15T01:07:48;1006.9147351916631;;;-0.25556238796154623;40.897447712258305
46382;BME280;66809;52.974;-2.514;2023-03-15T01:09:47;1006.9317532072754;;;-0.2613271024675187;40.88343102190185
46382;BME280;66809;52.974;-2.514;2023-03-15T01:11:47;1006.9497384312104;;;-0.2647280483386421;40.88484388337607
46382;BME280;66809;52.974;-2.514;2023-03-15T01:13:48;1006.969203872579;;;-0.2669444347042056;40.89795406351352
46382;BME280;66809;52.974;-2.514;2023-03-15T01:15:47;1006.988806947557;;;-0.27640562539381863;40.90973247989102
46382;BME280;66809;52.974;-2.514;2023-03-15T01:17:47;1007.0103887969896;;;-0.2787426607512006;40.90322585081531
46382;BME280;66809;52.974;-2.514;2023-03-15T01:19:48;1007.0339509287181;;;-0.2770303566489453;40.87566607706105
46382;BME280;66809;52.974;-2.514;2023-03-15T01:21:47;1007.059091739431;;;-0.27326665304724984;40.838519818596936
46382;BME280;66809;52.974;-2.514;2023-03-15T01:23:47;1007.085723023608;;;-0.265754525040693;40.81141916609972
46382;BME280;66809;52.974;-2.514;2023-03-15T01:25:47;1007.1129864879789;;;-0.258284402140977;40.81085141243771
46382;BME280;66809;52.974;-2.514;2023-03-15T01:27:48;1007.13997121717;;;-0.2514710855427325;40.84229204370984
46382;BME280;66809;52.974;-2.514;2023-03-15T01:29:47;1007.1668408037331;;;-0.2378360558562325;40.85008706525424
46382;BME280;66809;52.974;-2.514;2023-03-15T01:31:47;1007.1924225448478;;;-0.2242850335520975;40.834130483430606
46382;BME280;66809;52.974;-2.514;2023-03-15T01:33:48;1007.2168940299069;;;-0.21779247388265052;40.813660824445414
46382;BME280;66809;52.974;-2.514;2023-03-15T01:35:48;1007.2390601625116;;;-0.20587126744906584;40.78907226525078
46382;BME280;66809;52.974;-2.514;2023-03-15T01:37:48;1007.2585923103289;;;-0.19518351210093063;40.726990063045164
46382;BME280;66809;52.974;-2.514;2023-03-15T01:39:48;1007.278277819836;;;-0.194318196152026;40.70380656373285
46382;BME280;66809;52.974;-2.514;2023-03-15T01:41:47;1007.2989676316969;;;-0.19415857473621048;40.68369071526791
46382;BME280;66809;52.974;-2.514;2023-03-15T01:43:47;1007.3184923965123;;;-0.1818646869504878;40.67765786730084
46382;BME280;66809;52.974;-2.514;2023-03-15T01:46:01;1007.3385031451576;;;-0.1788234770981543;40.6862881628798
46382;BME280;66809;52.974;-2.514;2023-03-15T01:47:48;1007.3585411211812;;;-0.17388361032983113;40.67873254301939
46382;BME280;66809;52.974;-2.514;2023-03-15T01:49:52;1007.3783578321941;;;-0.1800836215766503;40.65076452086494
46382;BME280;66809;52.974;-2.514;2023-03-15T01:51:52;1007.3962023061359;;;-0.17783211601115087;40.62662155631733
46382;BME280;66809;52.974;-2.514;2023-03-15T01:53:51;1007.4135783825641;;;-0.17389198162282865;40.6179093119325
46382;BME280;66809;52.974;-2.514;2023-03-15T01:55:47;1007.4311191734271;;;-0.17442276522070868;40.60421514558516
46382;BME280;66809;52.974;-2.514;2023-03-15T01:57:50;1007.447686602767;;;-0.1711883284745045;40.577579761178825
46382;BME280;66809;52.974;-2.514;2023-03-15T01:59:50;1007.4639374439737;;;-0.16974333396150565;40.546920841502356
46382;BME280;66809;52.974;-2.514;2023-03-15T02:01:49;1007.4809962460471;;;-0.165904019301728;40.55085493190844
46382;BME280;66809;52.974;-2.514;2023-03-15T02:03:52;1007.4989493233928;;;-0.16831818592969267;40.56409028613975
46382;BME280;66809;52.974;-2.514;2023-03-15T02:05:49;1007.5164274977086;;;-0.15795120020941572;40.56056761882779
46382;BME280;66809;52.974;-2.514;2023-03-15T02:07:47;1007.5330206605139;;;-0.16154687017071603;40.5177561466994
46382;BME280;66809;52.974;-2.514;2023-03-15T02:09:52;1007.5482691725608;;;-0.17667728058408302;40.46017324846738
46382;BME280;66809;52.974;-2.514;2023-03-15T02:11:47;1007.5618891267427;;;-0.1939178985228022;40.40076561442097
46382;BME280;66809;52.974;-2.514;2023-03-15T02:13:57;1007.5738603885377;;;-0.202849813694083;40.36079951020032
46382;BME280;66809;52.974;-2.514;2023-03-15T02:15:48;1007.5856416975118;;;-0.21647642413996532;40.341906334645024
46382;BME280;66809;52.974;-2.514;2023-03-15T02:17:48;1007.5950339745451;;;-0.22565044360967185;40.33125933024133
46382;BME280;66809;52.974;-2.514;2023-03-15T02:19:54;1007.6001781777773;;;-0.23373232017866283;40.302795333711565
46382;BME280;66809;52.974;-2.514;2023-03-15T02:21:54;1007.600543771289;;;-0.24320038189583612;40.25909747453761
46382;BME280;66809;52.974;-2.514;2023-03-15T02:23:52;1007.5976228298002;;;-0.25843847719061014;40.185788642356314
46382;BME280;66809;52.974;-2.514;2023-03-15T02:25:53;1007.5939611108146;;;-0.2886572682378398;40.123964703903056
46382;BME280;66809;52.974;-2.514;2023-03-15T02:27:47;1007.5890954510377;;;-0.30961647347510435;40.07850985409411
46382;BME280;66809;52.974;-2.514;2023-03-15T02:29:47;1007.5844868068651;;;-0.33292948926579946;40.033523609570906
46382;BME280;66809;52.974;-2.514;2023-03-15T02:31:47;1007.5785666063758;;;-0.3667270327078434;39.98288602659925
46382;BME280;66809;52.974;-2.514;2023-03-15T02:33:49;1007.5728516333022;;;-0.403187716887131;39.9644928304241
46382;BME280;66809;52.974;-2.514;2023-03-15T02:35:47;1007.5673503085543;;;-0.4437298176978151;39.941606223575484
46382;BME280;66809;52.974;-2.514;2023-03-15T02:37:47;1007.5632275628012;;;-0.48273753999458896;39.95592692880782
46382;BME280;66809;52.974;-2.514;2023-03-15T02:39:48;1007.5590592909241;;;-0.5145385994576454;39.95604310204035
46382;BME280;66809;52.974;-2.514;2023-03-15T02:41:49;1007.5533277380729;;;-0.5520240957578931;39.930291455028915
46382;BME280;66809;52.974;-2.514;2023-03-15T02:43:49;1007.5473380757433;;;-0.604466618803681;39.920475248683516
46382;BME280;66809;52.974;-2.514;2023-03-15T02:45:48;1007.5404587937982;;;-0.664275394961815;39.89936552886953
46382;BME280;66809;52.974;-2.514;2023-03-15T02:47:48;1007.5356101249929;;;-0.7067091791590745;39.89336702973641
46382;BME280;66809;52.974;-2.514;2023-03-15T02:49:50;1007.5327027601646;;;-0.7492606035888765;39.89705230847987
46382;BME280;66809;52.974;-2.514;2023-03-15T02:51:48;1007.5318279491461;;;-0.784613827992064;39.910116969053135
46382;BME280;66809;52.974;-2.514;2023-03-15T02:53:47;1007.5333901162822;;;-0.8232083753103878;39.91888153474698
46382;BME280;66809;52.974;-2.514;2023-03-15T02:55:47;1007.5361156904563;;;-0.8592237996380475;39.92212863807965
46382;BME280;66809;52.974;-2.514;2023-03-15T02:57:48;1007.5391049196154;;;-0.8912486946006151;39.93067262646759
46382;BME280;66809;52.974;-2.514;2023-03-15T02:59:47;1007.540710175517;;;-0.9202186394484222;39.933002100442394
46382;BME280;66809;52.974;-2.514;2023-03-15T03:01:48;1007.5425100145706;;;-0.9480597690661481;39.922306779067064
46382;BME280;66809;52.974;-2.514;2023-03-15T03:03:47;1007.5451081946376;;;-0.978587751457054;39.92259600456327
46382;BME280;66809;52.974;-2.514;2023-03-15T03:05:48;1007.5489879342695;;;-1.0009598109501394;39.924513483704764
46382;BME280;66809;52.974;-2.514;2023-03-15T03:07:47;1007.5535391078763;;;-1.0188120901328597;39.943514903724264
46382;BME280;66809;52.974;-2.514;2023-03-15T03:09:47;1007.5585924169201;;;-1.0275155531412414;39.969442397851665
46382;BME280;66809;52.974;-2.514;2023-03-15T03:11:48;1007.5649345837057;;;-1.0478698294736395;39.98034432941227
46382;BME280;66809;52.974;-2.514;2023-03-15T03:13:47;1007.5718782127784;;;-1.0695209232735607;39.97955511261802
46382;BME280;66809;52.974;-2.514;2023-03-15T03:15:48;1007.5789668599758;;;-1.086163419336041;39.96076710460814
46382;BME280;66809;52.974;-2.514;2023-03-15T03:17:47;1007.5842141186472;;;-1.095942194089804;39.93814845783236
46382;BME280;66809;52.974;-2.514;2023-03-15T03:19:47;1007.5886704510314;;;-1.1082580997834546;39.92337847309675
46382;BME280;66809;52.974;-2.514;2023-03-15T03:21:48;1007.5943019216476;;;-1.1328144142393157;39.91808670680992
46382;BME280;66809;52.974;-2.514;2023-03-15T03:23:48;1007.6014289047068;;;-1.1489390846156098;39.94381730206392
46382;BME280;66809;52.974;-2.514;2023-03-15T03:25:47;1007.60811901981;;;-1.1499570570401394;39.96227095235415
46382;BME280;66809;52.974;-2.514;2023-03-15T03:27:47;1007.6147386569809;;;-1.1569650381518293;39.9443728158003
46382;BME280;66809;52.974;-2.514;2023-03-15T03:29:48;1007.6208488628207;;;-1.1634353387859764;39.912610037202185
46382;BME280;66809;52.974;-2.514;2023-03-15T03:31:47;1007.6286429753412;;;-1.1686187809859592;39.8987418353055
46382;BME280;66809;52.974;-2.514;2023-03-15T03:33:47;1007.6345205654226;;;-1.174407094926239;39.86412408919446
46382;BME280;66809;52.974;-2.514;2023-03-15T03:35:49;1007.6402686017012;;;-1.1737883815159866;39.824725133042755
46382;BME280;66809;52.974;-2.514;2023-03-15T03:37:47;1007.6461913987794;;;-1.1818884494527222;39.80521309364949
46382;BME280;66809;52.974;-2.514;2023-03-15T03:39:47;1007.6507630388771;;;-1.1949268365107257;39.797547905700725
46382;BME280;66809;52.974;-2.514;2023-03-15T03:41:47;1007.6570902473642;;;-1.2053608960485482;39.793044100596866
46382;BME280;66809;52.974;-2.514;2023-03-15T03:43:47;1007.6661404132535;;;-1.2101257390181543;39.77812057245637
46382;BME280;66809;52.974;-2.514;2023-03-15T03:45:47;1007.6766647357294;;;-1.2047198947405016;39.766065739285885
46382;BME280;66809;52.974;-2.514;2023-03-15T03:47:48;1007.6854918372152;;;-1.2186641120798558;39.736617800808254
46382;BME280;66809;52.974;-2.514;2023-03-15T03:49:47;1007.6908742680652;;;-1.226997925763606;39.708602331580465
46382;BME280;66809;52.974;-2.514;2023-03-15T03:51:48;1007.693780648757;;;-1.2345855250729463;39.6583121469365
46382;BME280;66809;52.974;-2.514;2023-03-15T03:53:47;1007.6930523643134;;;-1.24308724013063;39.61231395008205
46382;BME280;66809;52.974;-2.514;2023-03-15T03:55:47;1007.6889415133053;;;-1.2475815458202117;39.59889068645668
46382;BME280;66809;52.974;-2.514;2023-03-15T03:57:48;1007.6851559183027;;;-1.2522522780783272;39.60744136491353
46382;BME280;66809;52.974;-2.514;2023-03-15T03:59:47;1007.6828944616725;;;-1.2701799359122925;39.597751176365584
46382;BME280;66809;52.974;-2.514;2023-03-15T04:01:47;1007.6817473818606;;;-1.290336919445833;39.6001925712894
46382;BME280;66809;52.974;-2.514;2023-03-15T04:03:48;1007.6796165706662;;;-1.3087311696276853;39.5878979469823
46382;BME280;66809;52.974;-2.514;2023-03-15T04:05:47;1007.6753737657189;;;-1.3324150040927576;39.57090584244407
46382;BME280;66809;52.974;-2.514;2023-03-15T04:07:48;1007.6726762252594;;;-1.358972003534446;39.57120573052783
46382;BME280;66809;52.974;-2.514;2023-03-15T04:09:47;1007.6711746046459;;;-1.38315153015684;39.58910400378117
46382;BME280;66809;52.974;-2.514;2023-03-15T04:11:47;1007.6687947495035;;;-1.3940855966285486;39.61696271010698
46382;BME280;66809;52.974;-2.514;2023-03-15T04:13:48;1007.6643312055174;;;-1.4217684651977427;39.63870763445935
46382;BME280;66809;52.974;-2.514;2023-03-15T04:15:47;1007.6594083708948;;;-1.4462352062716777;39.63591263228852
46382;BME280;66809;52.974;-2.514;2023-03-15T04:17:47;1007.6585509333979;;;-1.4720124948559359;39.647829683419914
46382;BME280;66809;52.974;-2.514;2023-03-15T04:19:47;1007.6608952741241;;;-1.4929659977664471;39.664516260205296
46382;BME280;66809;52.974;-2.514;2023-03-15T04:21:48;1007.6628497051845;;;-1.51561115198574;39.682054580229035
46382;BME280;66809;52.974;-2.514;2023-03-15T04:23:47;1007.6630358680546;;;-1.5478067797301356;39.68066318466769
46382;BME280;66809;52.974;-2.514;2023-03-15T04:25:48;1007.6621564723658;;;-1.5784046136459002;39.67821010508357
46382;BME280;66809;52.974;-2.514;2023-03-15T04:27:48;1007.6592134135103;;;-1.617808267472742;39.700339595569176
46382;BME280;66809;52.974;-2.514;2023-03-15T04:29:47;1007.6549834191462;;;-1.6643666085927493;39.738335883827354
46382;BME280;66809;52.974;-2.514;2023-03-15T04:31:48;1007.6523642960791;;;-1.699536097544321;39.76485569834982
46382;BME280;66809;52.974;-2.514;2023-03-15T04:33:47;1007.6519440169827;;;-1.7260761464897747;39.81293705075142
46382;BME280;66809;52.974;-2.514;2023-03-15T04:35:47;1007.6519604073154;;;-1.7446069852721728;39.875932124028495
46382;BME280;66809;52.974;-2.514;2023-03-15T04:37:48;1007.6500980871951;;;-1.7552240749944121;39.918871239220536
46382;BME280;66809;52.974;-2.514;2023-03-15T04:39:47;1007.648906826868;;;-1.759842857498989;39.929820101946106
46382;BME280;66809;52.974;-2.514;2023-03-15T04:41:47;1007.6456246660142;;;-1.757609499564697;39.95147511561506
46382;BME280;66809;52.974;-2.514;2023-03-15T04:43:48;1007.6388863761874;;;-1.7485262669676918;39.96826759249989
46382;BME280;66809;52.974;-2.514;2023-03-15T04:45:47;1007.6311913875867;;;-1.7455171038890913;39.972561072718776
46382;BME280;66809;52.974;-2.514;2023-03-15T04:47:48;1007.6238571906877;;;-1.7351630606397113;39.97035863028864
46382;BME280;66809;52.974;-2.514;2023-03-15T04:49:47;1007.6187671080135;;;-1.7341830750035672;39.9540121693829
46382;BME280;66809;52.974;-2.514;2023-03-15T04:51:48;1007.6153140332772;;;-1.7479256532653757;39.97072205436287
46382;BME280;66809;52.974;-2.514;2023-03-15T04:53:47;1007.615251114163;;;-1.748810826577166;40.00262933560721
46382;BME280;66809;52.974;-2.514;2023-03-15T04:55:47;1007.6195507196055;;;-1.75230885053785;40.018405510798054
46382;BME280;66809;52.974;-2.514;2023-03-15T04:57:48;1007.622856937988;;;-1.7573511892335023;40.01260061512403
46382;BME280;66809;52.974;-2.514;2023-03-15T04:59:48;1007.6249953293781;;;-1.7460282269899485;40.01711250984477
46382;BME280;66809;52.974;-2.514;2023-03-15T05:01:47;1007.6257727261614;;;-1.7304428886120786;40.008445630977945
46382;BME280;66809;52.974;-2.514;2023-03-15T05:03:47;1007.6261810502524;;;-1.7146139217304746;39.984775002369894
46382;BME280;66809;52.974;-2.514;2023-03-15T05:05:48;1007.6301689551036;;;-1.7031718881537088;39.9648349536225
46382;BME280;66809;52.974;-2.514;2023-03-15T05:07:47;1007.6341938873558;;;-1.6921247010897207;39.93696934239194
46382;BME280;66809;52.974;-2.514;2023-03-15T05:09:47;1007.6381118648654;;;-1.6831693555222234;39.904323535984624
46382;BME280;66809;52.974;-2.514;2023-03-15T05:11:47;1007.6423552325533;;;-1.670734387966577;39.872434787830706
46382;BME280;66809;52.974;-2.514;2023-03-15T05:13:47;1007.6473739747272;;;-1.6508842630754854;39.839105984676216
46382;BME280;66809;52.974;-2.514;2023-03-15T05:15:48;1007.6535784844898;;;-1.6429759745698655;39.84131626315438
46382;BME280;66809;52.974;-2.514;2023-03-15T05:17:47;1007.6599599793058;;;-1.6310688059916116;39.83971640409812
46382;BME280;66809;52.974;-2.514;2023-03-15T05:19:47;1007.6658311165605;;;-1.6189195983735551;39.836028027346934
46382;BME280;66809;52.974;-2.514;2023-03-15T05:21:48;1007.6746382639577;;;-1.5907243292251534;39.823650715498594
46382;BME280;66809;52.974;-2.514;2023-03-15T05:23:47;1007.6853136369241;;;-1.5627712305282977;39.825515069165014
46382;BME280;66809;52.974;-2.514;2023-03-15T05:25:49;1007.6978661331455;;;-1.5320740745453396;39.83150014363675
46382;BME280;66809;52.974;-2.514;2023-03-15T05:27:47;1007.7118280763915;;;-1.4944178389001712;39.84657386847993
46382;BME280;66809;52.974;-2.514;2023-03-15T05:29:47;1007.7267753098772;;;-1.442919683078171;39.85783550943087
46382;BME280;66809;52.974;-2.514;2023-03-15T05:31:47;1007.7395783429583;;;-1.3968960437482179;39.87005777862582
46382;BME280;66809;52.974;-2.514;2023-03-15T05:33:47;1007.7513706150653;;;-1.3597355865387135;39.85641843903525
46382;BME280;66809;52.974;-2.514;2023-03-15T05:35:47;1007.7619838442431;;;-1.3279548179875753;39.83130501033233
46382;BME280;66809;52.974;-2.514;2023-03-15T05:37:47;1007.7732631035033;;;-1.293915638217879;39.81028163370854
46382;BME280;66809;52.974;-2.514;2023-03-15T05:39:47;1007.7851008875798;;;-1.2632872543118425;39.799174530260935
46382;BME280;66809;52.974;-2.514;2023-03-15T05:41:47;1007.7972892129353;;;-1.2356633475264516;39.78118978083128
46382;BME280;66809;52.974;-2.514;2023-03-15T05:43:48;1007.8116110724366;;;-1.218567487409279;39.75670246543884
46382;BME280;66809;52.974;-2.514;2023-03-15T05:45:47;1007.8247768217553;;;-1.2010247687147575;39.749203339292606
46382;BME280;66809;52.974;-2.514;2023-03-15T05:47:47;1007.836991456338;;;-1.1803468769659564;39.75679541500097
46382;BME280;66809;52.974;-2.514;2023-03-15T05:49:48;1007.8490798801425;;;-1.1584256418274075;39.77823986891284
46382;BME280;66809;52.974;-2.514;2023-03-15T05:51:47;1007.8625180667855;;;-1.1259976852656128;39.78641290084764
46382;BME280;66809;52.974;-2.514;2023-03-15T05:53:48;1007.8756905935314;;;-1.1019104543455986;39.779298822061214
46382;BME280;66809;52.974;-2.514;2023-03-15T05:55:48;1007.8865201406757;;;-1.0863907854508639;39.76768446497223
46382;BME280;66809;52.974;-2.514;2023-03-15T05:57:47;1007.8995399482488;;;-1.0649345375025168;39.76102870502504
46382;BME280;66809;52.974;-2.514;2023-03-15T05:59:47;1007.9136819480465;;;-1.0574042357290718;39.767650042355946
46382;BME280;66809;52.974;-2.514;2023-03-15T06:01:48;1007.9289352973768;;;-1.0430789692340972;39.77637554923277
46382;BME280;66809;52.974;-2.514;2023-03-15T06:03:47;1007.9459693534161;;;-1.0240323045949593;39.78059910007553
46382;BME280;66809;52.974;-2.514;2023-03-15T06:05:47;1007.9616614059638;;;-1.0037506869651955;39.7860708737702
46382;BME280;66809;52.974;-2.514;2023-03-15T06:07:48;1007.9750458179761;;;-0.9865171556850824;39.7943190617699
46382;BME280;66809;52.974;-2.514;2023-03-15T06:09:47;1007.9871135016368;;;-0.968443510540776;39.800367247827104
46382;BME280;66809;52.974;-2.514;2023-03-15T06:11:47;1007.9964492182236;;;-0.9424980483959294;39.79847279385471
46382;BME280;66809;52.974;-2.514;2023-03-15T06:13:48;1008.0048682511712;;;-0.9216100744792753;39.795999282657675
46382;BME280;66809;52.974;-2.514;2023-03-15T06:15:48;1008.0134026211169;;;-0.8816363007880009;39.78271171004925
46382;BME280;66809;52.974;-2.514;2023-03-15T06:17:48;1008.020135465972;;;-0.8554670726748174;39.75870825295105
46382;BME280;66809;52.974;-2.514;2023-03-15T06:19:48;1008.0258229178761;;;-0.8290037613896578;39.7257973411034
46382;BME280;66809;52.974;-2.514;2023-03-15T06:21:47;1008.0287464818244;;;-0.8063698027127384;39.69104713382888
46382;BME280;66809;52.974;-2.514;2023-03-15T06:23:47;1008.0316942190783;;;-0.7705040728485043;39.648351456633506
46382;BME280;66809;52.974;-2.514;2023-03-15T06:25:47;1008.0333814575188;;;-0.7331849343990792;39.59617586985325
46382;BME280;66809;52.974;-2.514;2023-03-15T06:27:48;1008.0357347370439;;;-0.7018405090424562;39.53250990895575
46382;BME280;66809;52.974;-2.514;2023-03-15T06:29:48;1008.0391151741044;;;-0.6705098167271669;39.47152372694394
46382;BME280;66809;52.974;-2.514;2023-03-15T06:31:47;1008.0439752463764;;;-0.6420889414722347;39.410817567925626
46382;BME280;66809;52.974;-2.514;2023-03-15T06:33:47;1008.0501537544078;;;-0.6084608789975128;39.3494252262456
46382;BME280;66809;52.974;-2.514;2023-03-15T06:35:48;1008.0570139299158;;;-0.5769819653132003;39.29376981117582
46382;BME280;66809;52.974;-2.514;2023-03-15T06:37:48;1008.0636238838855;;;-0.5532878282109507;39.24040746483459
46382;BME280;66809;52.974;-2.514;2023-03-15T06:39:47;1008.0703875363895;;;-0.5226894934769792;39.18761561018325
46382;BME280;66809;52.974;-2.514;2023-03-15T06:41:47;1008.0780701863971;;;-0.4855818098091993;39.13472984164774
46382;BME280;66809;52.974;-2.514;2023-03-15T06:43:48;1008.0862135752676;;;-0.4467014745120032;39.08289853216685
46382;BME280;66809;52.974;-2.514;2023-03-15T06:45:47;1008.0961545249301;;;-0.40477992237410293;39.031929709883904
46382;BME280;66809;52.974;-2.514;2023-03-15T06:47:47;1008.1083115309224;;;-0.3637473456195947;38.97655063282822
46382;BME280;66809;52.974;-2.514;2023-03-15T06:49:47;1008.1209922288588;;;-0.314063129275748;38.92155068206475
46382;BME280;66809;52.974;-2.514;2023-03-15T06:51:47;1008.132713808584;;;-0.2659651819922063;38.86118870986979
46382;BME280;66809;52.974;-2.514;2023-03-15T06:53:48;1008.1434914259013;;;-0.2165230321782906;38.7990985730626
46382;BME280;66809;52.974;-2.514;2023-03-15T06:55:47;1008.1542409530955;;;-0.1603699039764006;38.737862729678945
46382;BME280;66809;52.974;-2.514;2023-03-15T06:57:47;1008.1642535365432;;;-0.10604665534213731;38.68006922610163
46382;BME280;66809;52.974;-2.514;2023-03-15T06:59:48;1008.173530312358;;;-0.052209106229782316;38.62208197158463
46382;BME280;66809;52.974;-2.514;2023-03-15T07:01:47;1008.1816826360247;;;0.0024350132893117033;38.56282488231322
46382;BME280;66809;52.974;-2.514;2023-03-15T07:03:47;1008.1876023093329;;;0.050317821997237694;38.51511804856792
46382;BME280;66809;52.974;-2.514;2023-03-15T07:05:48;1008.1920551815502;;;0.10385307208348804;38.46223781641224